Forside
METAR-TAF:

METAR-TAF

Lufthavne :

Fond Du Lac County Airport

Fond du Lac, Wisconsin, USA

Breddekreds: 43-46-12N, længdekreds: 088-29-11W, højde: 246 m

Aktuelle vejr

Denne rapport blev lavet for 33 minutter siden, kl. 20:53 UTC
Vind 8 kt fra nordvest
Temperatur 0°C
Fugtighed 86%
Tryk 1011 hPa
Sigt: 16.1 km
Overskyet i en højde af 800 ft

METAR: KFLD 262053Z AUTO 31008KT 10SM OVC008 00/M02 A2985 RMK AO2 SLP118 T00001022 55005

Tid: 15:26 (21:26 UTC)


TAF: fraværende

Vejrobservationer og prognoser fra mere end 4000 lufthavne (METAR og TAF).

De gule og røde prikker repræsenterer de meteorologiske stationer.

Flyt musen over at se navnet på stationen.

Så klik over at se vejr observationer og prognoser.

At skifte det kort: Klik på de grønne knapper med et sort kors for at zoome ind; på den grønne knap med en bindestreg for at zoome ud; eller på de grønne pile for tilstødende kort.


METAR-TAF: